Belen, NM (87002)

7:39 AM MDT on September 16, 2014 (GMT -0600)
Belen | Change Station
CLOSE
Current Station
Airport
Location: Belen,
Elevation: 5194 ft
Nearby Weather Stations

Elev 5194 ft 34.65 °N, 106.83 °W | Updated 4 minutes ago

Overcast
Overcast
65 °F
Feels Like 65 °F
N
0
Wind Variable Wind from North

Today
High -- | Low -- °F
--% Chance of Precip.
Yesterday
High -- | Low -- °F
Precip. -- in
6:50 AM 7:11 PM
Last Quarter, 45% visible
Pressure 30.30 in
Visibility 10.0 miles
Clouds Mostly Cloudy 3000 ft
Overcast 3400 ft
Dew Point 59 °F
Humidity 81%
Rainfall 0.00 in
Snow Depth 0 in , 0 in , 1 in
UV 0 out of 12
Pollen 5.30 out of 12
Air Quality Not available.
Flu Activity Not available.
METAR KE80 161335Z AUTO 00000KT 10SM BKN030 OVC034 18/15 A3030 RMK AO2 T01830150

More Conditions Fewer Conditions

Pressure 30.30 in
Visibility 10.0 miles
Clouds Mostly Cloudy 3000 ft
Overcast 3400 ft
Dew Point 59 °F
Humidity 81%
Rainfall 0.00 in
Snow Depth 0 in , 0 in , 1 in
UV 0 out of 12
Pollen 5.30 out of 12
Air Quality Not available.
Flu Activity Not available.
METAR KE80 161335Z AUTO 00000KT 10SM BKN030 OVC034 18/15 A3030 RMK AO2 T01830150

More Conditions Fewer Conditions

10-Day Weather Forecast

Almanac

Astronomy

Sep. 16, 2014 Rise Set
Actual Time 6:50 AM MDT 7:11 PM MDT
Civil Twilight 6:25 AM MDT 7:37 PM MDT
Nautical Twilight 5:55 AM MDT 8:06 PM MDT
Astronomical Twilight 5:25 AM MDT 8:36 PM MDT
Moon 12:13 AM MDT 2:27 PM MDT
Length of Visible Light 13h 11m
Length of Day
12h 21m
Tomorrow will be 2m 9s shorter.
Last Quarter, 45% of the Moon is Illuminated
Today
Last Quarter
Sep 24
New
Oct 1
First Quarter
Oct 8
Full
Oct 15
Last Quarter

Today's Extremes

State Highs State Lows

Community

WunderPhotos

Upload Photos

1,753,759 photos uploaded!

Nearby

Snow Depth

Station Depth Elevation
Bateman 0 in 9300 ft
Tolby 0 in 10180 ft
Sierra Blanca 1 in 10280 ft
Santa Fe 0 in 11445 ft
North Costilla 1 in 10600 ft

Earthquake Activity

City Distance Mag. Time & Date
No recent earthquake activity has been reported nearby.
Minimum magnitude displayed is 2.5.

Coastal Water Temperatures

Place Temperature
No Stations Reporting

Nearby Weather Stations